Time;durP1;ratioP1;P1;durP2;ratioP2;P2;SDS_P1;SDS_P2;PMS_P1;PMS_P2;Temp;Humidity;BMP_temperature;BMP_pressure;BME280_temperature;BME280_humidity;BME280_pressure;Samples;Min_cycle;Max_cycle;Signal;HPM_P1;HPM_P2
2023/01/08 00:01:43;;;;;;;2.47;2.27;;;10.90;99.90;;;;;;5038453;28;20183;-41
2023/01/08 00:04:09;;;;;;;2.37;2.17;;;10.90;99.90;;;;;;5037676;28;20500;-36
2023/01/08 00:06:35;;;;;;;2.23;2.00;;;10.90;99.90;;;;;;5034811;28;20202;-35
2023/01/08 00:09:00;;;;;;;3.30;2.23;;;10.90;99.90;;;;;;5045555;28;20508;-41
2023/01/08 00:11:26;;;;;;;2.10;1.90;;;10.90;99.90;;;;;;5030538;28;20178;-37
2023/01/08 00:13:52;;;;;;;4.40;2.00;;;10.90;99.90;;;;;;5028004;28;20198;-39
2023/01/08 00:16:18;;;;;;;2.30;1.90;;;10.90;99.90;;;;;;5029656;28;20830;-35
2023/01/08 00:18:45;;;;;;;2.03;1.90;;;10.90;99.90;;;;;;5029636;28;20183;-40
2023/01/08 00:21:11;;;;;;;2.53;2.00;;;10.90;99.90;;;;;;5028725;28;20480;-33
2023/01/08 00:23:37;;;;;;;2.40;2.00;;;10.80;99.90;;;;;;5031977;28;20447;-40
2023/01/08 00:26:05;;;;;;;2.27;2.07;;;10.90;99.90;;;;;;5032947;28;20421;-40
2023/01/08 00:28:31;;;;;;;2.10;1.90;;;10.90;99.90;;;;;;5032794;28;20464;-36
2023/01/08 00:30:57;;;;;;;1.83;1.73;;;10.90;99.90;;;;;;5032679;28;20483;-37
2023/01/08 00:33:22;;;;;;;1.97;1.77;;;10.90;99.90;;;;;;5040043;28;20193;-39
2023/01/08 00:35:48;;;;;;;1.70;1.60;;;10.90;99.90;;;;;;5047408;28;20251;-39
2023/01/08 00:38:14;;;;;;;1.90;1.70;;;10.90;99.90;;;;;;5032959;28;20417;-38
2023/01/08 00:40:39;;;;;;;2.43;1.60;;;10.90;99.90;;;;;;5031022;28;20190;-39
2023/01/08 00:43:06;;;;;;;2.30;1.90;;;10.90;99.90;;;;;;5031214;28;20190;-39
2023/01/08 00:45:32;;;;;;;1.70;1.60;;;10.90;99.90;;;;;;5031244;28;20199;-40
2023/01/08 00:47:58;;;;;;;2.03;1.80;;;10.90;99.90;;;;;;5032584;28;20459;-39
2023/01/08 00:50:24;;;;;;;2.50;1.80;;;10.80;99.90;;;;;;5032238;28;20193;-38
2023/01/08 00:52:50;;;;;;;2.20;1.80;;;10.80;99.90;;;;;;5032513;28;20429;-39
2023/01/08 00:55:16;;;;;;;2.40;1.87;;;10.90;99.90;;;;;;5032734;28;20754;-41
2023/01/08 00:57:42;;;;;;;2.13;1.87;;;10.90;99.90;;;;;;5049738;28;20284;-38
2023/01/08 01:00:11;;;;;;;4.73;4.30;;;10.90;99.90;;;;;;5044570;28;20197;-40
2023/01/08 01:02:38;;;;;;;2.20;1.53;;;10.90;99.90;;;;;;5048258;28;20217;-39
2023/01/08 01:05:04;;;;;;;2.10;1.50;;;10.90;99.90;;;;;;5032483;28;20998;-40
2023/01/08 01:07:30;;;;;;;2.67;1.83;;;10.90;99.90;;;;;;5032554;28;20825;-37
2023/01/08 01:09:56;;;;;;;2.70;1.70;;;10.90;99.90;;;;;;5033050;28;20417;-37
2023/01/08 01:12:21;;;;;;;2.70;1.80;;;10.90;99.90;;;;;;5031998;28;20430;-38
2023/01/08 01:14:47;;;;;;;1.80;1.70;;;10.90;99.90;;;;;;5032251;28;20273;-35
2023/01/08 01:17:13;;;;;;;1.40;1.20;;;10.90;99.90;;;;;;5032980;28;20604;-38
2023/01/08 01:19:39;;;;;;;2.00;1.53;;;10.80;99.90;;;;;;5044198;28;20205;-38
2023/01/08 01:22:05;;;;;;;1.60;1.50;;;10.90;99.90;;;;;;5032096;28;20222;-38
2023/01/08 01:24:31;;;;;;;2.83;1.50;;;10.80;99.90;;;;;;5031889;28;20456;-39
2023/01/08 01:26:56;;;;;;;1.80;1.70;;;10.80;99.90;;;;;;5031729;28;20229;-40
2023/01/08 01:29:23;;;;;;;2.40;1.57;;;10.80;99.90;;;;;;5030101;28;20202;-41
2023/01/08 01:31:49;;;;;;;1.60;1.50;;;10.80;99.90;;;;;;5032038;28;20277;-38
2023/01/08 01:34:14;;;;;;;1.70;1.60;;;10.80;99.90;;;;;;5031482;28;20417;-38
2023/01/08 01:36:40;;;;;;;2.30;1.50;;;10.80;99.90;;;;;;5063826;28;20702;-38
2023/01/08 01:39:06;;;;;;;5.33;2.00;;;10.90;99.90;;;;;;5043074;28;20209;-39
2023/01/08 01:41:38;;;;;;;3.90;1.80;;;10.80;99.90;;;;;;5051493;28;20208;-37
2023/01/08 01:44:40;;;;;;;2.23;1.50;;;10.90;99.90;;;;;;5051686;28;20176;-40
2023/01/08 01:47:24;;;;;;;3.23;1.80;;;10.90;99.90;;;;;;5051595;28;20894;-39
2023/01/08 01:50:11;;;;;;;2.23;1.87;;;10.90;99.90;;;;;;5050892;28;20400;-41
2023/01/08 01:53:13;;;;;;;1.60;1.40;;;10.80;99.90;;;;;;5046497;28;20418;-37
2023/01/08 01:55:41;;;;;;;1.60;1.43;;;10.80;99.90;;;;;;5050180;28;20465;-36
2023/01/08 01:58:14;;;;;;;1.83;1.50;;;10.80;99.90;;;;;;5051183;28;20499;-41
2023/01/08 02:00:41;;;;;;;1.93;1.73;;;10.90;99.90;;;;;;5050984;28;20789;-37
2023/01/08 02:03:08;;;;;;;1.60;1.47;;;10.90;99.90;;;;;;5051363;28;20980;-39
2023/01/08 02:05:59;;;;;;;2.10;1.90;;;10.90;99.90;;;;;;5051006;28;20436;-41
2023/01/08 02:08:37;;;;;;;1.93;1.73;;;10.80;99.90;;;;;;5051048;28;20471;-38
2023/01/08 02:11:16;;;;;;;2.47;1.93;;;10.80;99.90;;;;;;5050387;28;20397;-38
2023/01/08 02:13:59;;;;;;;2.40;1.53;;;10.80;99.90;;;;;;5051140;28;20434;-40
2023/01/08 02:16:44;;;;;;;6.70;1.73;;;10.80;99.90;;;;;;5050952;28;20400;-41
2023/01/08 02:19:42;;;;;;;2.40;1.70;;;10.80;99.90;;;;;;5050426;28;20508;-38
2023/01/08 02:22:35;;;;;;;2.80;1.83;;;10.80;99.90;;;;;;5046348;28;20786;-39
2023/01/08 02:25:21;;;;;;;2.63;1.90;;;10.80;99.90;;;;;;5050943;28;20419;-40
2023/01/08 02:27:50;;;;;;;2.03;1.83;;;10.90;99.90;;;;;;5050792;28;20460;-38
2023/01/08 02:30:16;;;;;;;2.63;2.43;;;10.80;99.90;;;;;;5050328;28;20408;-38
2023/01/08 02:32:42;;;;;;;3.87;2.10;;;10.90;99.90;;;;;;5050669;28;20432;-41
2023/01/08 02:35:09;;;;;;;2.30;2.10;;;10.80;99.90;;;;;;5054903;28;20407;-38
2023/01/08 02:37:37;;;;;;;3.10;1.87;;;10.80;99.90;;;;;;5070330;28;20400;-41
2023/01/08 02:40:24;;;;;;;2.10;1.90;;;10.80;99.90;;;;;;5068659;28;20419;-38
2023/01/08 02:43:09;;;;;;;3.87;1.83;;;10.80;99.90;;;;;;5069228;28;20411;-39
2023/01/08 02:45:51;;;;;;;3.10;1.97;;;10.80;99.90;;;;;;5060200;28;20443;-40
2023/01/08 02:48:44;;;;;;;2.20;2.00;;;10.80;99.90;;;;;;5043368;28;20456;-40
2023/01/08 02:51:17;;;;;;;1.70;1.60;;;10.80;99.90;;;;;;5050021;28;20451;-41
2023/01/08 02:53:47;;;;;;;3.30;2.00;;;10.80;99.90;;;;;;5050570;28;20515;-35
2023/01/08 02:56:23;;;;;;;2.93;1.87;;;10.80;99.90;;;;;;5050337;28;20400;-38
2023/01/08 02:58:51;;;;;;;1.80;1.70;;;10.80;99.90;;;;;;5050267;28;20431;-40
2023/01/08 03:01:18;;;;;;;3.83;1.90;;;10.80;99.90;;;;;;5048521;28;20435;-37
2023/01/08 03:03:51;;;;;;;2.07;1.87;;;10.80;99.90;;;;;;5050286;28;20903;-36
2023/01/08 03:06:19;;;;;;;2.00;1.83;;;10.80;99.90;;;;;;5050134;28;20535;-38
2023/01/08 03:08:50;;;;;;;2.20;1.90;;;10.70;99.90;;;;;;5049998;28;20467;-40
2023/01/08 03:11:20;;;;;;;2.97;2.17;;;10.70;99.90;;;;;;5049726;28;21186;-40
2023/01/08 03:14:00;;;;;;;2.23;2.03;;;10.70;99.90;;;;;;5050103;28;20420;-39
2023/01/08 03:16:34;;;;;;;5.20;1.97;;;10.70;99.90;;;;;;5050065;28;20814;-38
2023/01/08 03:19:18;;;;;;;1.87;1.63;;;10.70;99.90;;;;;;5048155;28;20483;-38
2023/01/08 03:21:45;;;;;;;2.77;1.77;;;10.70;99.90;;;;;;5040826;28;20830;-41
2023/01/08 03:24:15;;;;;;;2.43;2.20;;;10.60;99.90;;;;;;5032070;28;20422;-40
2023/01/08 03:26:42;;;;;;;2.23;2.03;;;10.70;99.90;;;;;;5047507;28;20996;-38
2023/01/08 03:29:12;;;;;;;2.33;2.13;;;10.70;99.90;;;;;;5041322;28;20818;-38
2023/01/08 03:31:40;;;;;;;2.73;1.93;;;10.60;99.90;;;;;;5049757;28;20507;-41
2023/01/08 03:34:06;;;;;;;2.77;2.43;;;10.60;99.90;;;;;;5049497;28;20417;-41
2023/01/08 03:36:34;;;;;;;2.27;2.03;;;10.60;99.90;;;;;;5049639;28;20771;-39
2023/01/08 03:39:09;;;;;;;2.10;1.87;;;10.60;99.90;;;;;;5047708;28;20416;-40
2023/01/08 03:41:35;;;;;;;2.80;2.10;;;10.60;99.90;;;;;;5049344;28;20415;-38
2023/01/08 03:44:01;;;;;;;2.50;2.30;;;10.60;99.90;;;;;;5048480;28;20773;-39
2023/01/08 03:46:38;;;;;;;2.80;2.30;;;10.60;99.90;;;;;;5044932;28;20435;-35
2023/01/08 03:49:06;;;;;;;3.73;2.70;;;10.60;99.90;;;;;;5049066;28;20452;-40
2023/01/08 03:51:42;;;;;;;2.90;2.20;;;10.50;99.90;;;;;;5049678;28;20455;-39
2023/01/08 03:54:12;;;;;;;3.10;2.80;;;10.50;99.90;;;;;;5049916;28;20432;-37
2023/01/08 03:56:38;;;;;;;3.20;2.90;;;10.50;99.90;;;;;;5051951;28;20447;-38
2023/01/08 03:59:04;;;;;;;2.50;1.97;;;10.50;99.90;;;;;;5053015;28;20455;-36
2023/01/08 04:01:29;;;;;;;2.43;2.23;;;10.50;99.90;;;;;;5053428;28;20208;-38
2023/01/08 04:03:55;;;;;;;2.27;2.03;;;10.50;99.90;;;;;;5052320;28;20260;-39
2023/01/08 04:06:20;;;;;;;2.07;1.87;;;10.50;99.90;;;;;;5053357;28;20220;-36
2023/01/08 04:08:47;;;;;;;2.63;2.00;;;10.50;99.90;;;;;;5051958;28;20567;-37
2023/01/08 04:11:13;;;;;;;2.40;2.20;;;10.50;99.90;;;;;;5052794;28;20178;-41
2023/01/08 04:13:38;;;;;;;2.43;1.80;;;10.50;99.90;;;;;;5052039;28;20435;-38
2023/01/08 04:16:04;;;;;;;2.07;1.87;;;10.50;99.90;;;;;;5048473;28;20555;-39
2023/01/08 04:18:30;;;;;;;2.30;2.10;;;10.50;99.90;;;;;;5053135;28;20228;-41
2023/01/08 04:20:56;;;;;;;2.20;2.00;;;10.50;99.90;;;;;;5051202;28;20408;-37
2023/01/08 04:23:22;;;;;;;2.00;1.80;;;10.50;99.90;;;;;;5051980;28;20216;-40
2023/01/08 04:25:47;;;;;;;2.13;1.77;;;10.50;99.90;;;;;;5053238;28;20178;-39
2023/01/08 04:28:13;;;;;;;2.10;2.00;;;10.50;99.90;;;;;;5052837;28;20584;-38
2023/01/08 04:30:39;;;;;;;2.00;1.80;;;10.50;99.90;;;;;;5048315;28;20190;-39
2023/01/08 04:33:04;;;;;;;1.83;1.73;;;10.50;99.90;;;;;;5052714;28;20181;-38
2023/01/08 04:35:30;;;;;;;1.97;1.60;;;10.50;99.90;;;;;;5053058;28;20186;-41
2023/01/08 04:37:56;;;;;;;2.90;1.97;;;10.50;99.90;;;;;;5052912;28;20178;-38
2023/01/08 04:40:21;;;;;;;2.20;2.00;;;10.50;99.90;;;;;;5052464;28;20181;-37
2023/01/08 04:42:47;;;;;;;2.20;2.00;;;10.50;99.90;;;;;;5051302;28;20633;-40
2023/01/08 04:45:12;;;;;;;3.80;2.30;;;10.50;99.90;;;;;;5052987;28;20174;-39
2023/01/08 04:47:38;;;;;;;2.20;2.00;;;10.50;99.90;;;;;;5052698;28;20213;-40
2023/01/08 04:50:04;;;;;;;2.27;1.80;;;10.50;99.90;;;;;;5052190;28;20200;-38
2023/01/08 04:52:30;;;;;;;1.77;1.57;;;10.50;99.90;;;;;;5034767;28;20185;-39
2023/01/08 04:54:55;;;;;;;3.07;2.57;;;10.50;99.90;;;;;;5052813;28;20412;-38
2023/01/08 04:57:21;;;;;;;1.57;1.47;;;10.50;99.90;;;;;;5050904;28;20261;-39
2023/01/08 04:59:47;;;;;;;2.10;1.90;;;10.50;99.90;;;;;;5052101;28;20656;-38
2023/01/08 05:02:12;;;;;;;2.87;1.67;;;10.50;99.90;;;;;;5049242;28;20201;-39
2023/01/08 05:04:38;;;;;;;2.30;1.60;;;10.50;99.90;;;;;;5050945;28;20202;-37
2023/01/08 05:07:04;;;;;;;1.87;1.30;;;10.50;99.90;;;;;;5051786;28;20695;-39
2023/01/08 05:09:30;;;;;;;1.80;1.30;;;10.50;99.90;;;;;;5051538;28;20189;-37
2023/01/08 05:11:55;;;;;;;2.30;1.30;;;10.50;99.90;;;;;;5052173;28;20201;-40
2023/01/08 05:14:21;;;;;;;1.30;1.20;;;10.50;99.90;;;;;;5052313;28;20268;-38
2023/01/08 05:16:46;;;;;;;1.30;1.20;;;10.50;99.90;;;;;;5052322;28;20184;-38
2023/01/08 05:19:12;;;;;;;1.43;1.33;;;10.50;99.90;;;;;;5051760;28;20262;-39
2023/01/08 05:21:38;;;;;;;1.70;1.60;;;10.40;99.90;;;;;;5050814;28;20204;-36
2023/01/08 05:24:04;;;;;;;1.13;1.03;;;10.50;99.90;;;;;;5050801;28;20424;-36
2023/01/08 05:26:30;;;;;;;2.23;1.23;;;10.40;99.90;;;;;;5051900;28;20190;-38
2023/01/08 05:28:56;;;;;;;1.60;1.40;;;10.50;99.90;;;;;;5050591;28;20224;-41
2023/01/08 05:31:21;;;;;;;1.53;1.20;;;10.50;99.90;;;;;;5050445;28;20207;-41
2023/01/08 05:33:47;;;;;;;1.17;1.07;;;10.50;99.90;;;;;;5049300;28;20416;-38
2023/01/08 05:36:13;;;;;;;1.20;1.10;;;10.50;99.90;;;;;;5052035;28;20178;-39
2023/01/08 05:38:39;;;;;;;1.60;1.50;;;10.40;99.90;;;;;;5050624;28;20255;-37
2023/01/08 05:41:06;;;;;;;1.50;1.30;;;10.40;99.90;;;;;;5051020;28;20257;-39
2023/01/08 05:43:32;;;;;;;1.30;1.20;;;10.40;99.90;;;;;;5050274;28;21162;-37
2023/01/08 05:46:02;;;;;;;1.60;1.40;;;10.50;99.90;;;;;;5050851;28;20420;-37
2023/01/08 05:48:29;;;;;;;1.20;1.00;;;10.40;99.90;;;;;;5050180;28;20459;-34
2023/01/08 05:50:55;;;;;;;1.43;1.10;;;10.40;99.90;;;;;;5047853;28;20429;-39
2023/01/08 05:53:21;;;;;;;1.70;1.43;;;10.40;99.90;;;;;;5051451;28;20405;-40
2023/01/08 05:55:47;;;;;;;1.50;1.40;;;10.50;99.90;;;;;;5051339;28;20497;-36
2023/01/08 05:58:13;;;;;;;1.17;1.07;;;10.50;99.90;;;;;;5051479;28;20413;-38
2023/01/08 06:00:39;;;;;;;1.33;1.23;;;10.50;99.90;;;;;;5049505;28;20419;-35
2023/01/08 06:03:05;;;;;;;1.60;1.40;;;10.40;99.90;;;;;;5051409;28;20193;-40
2023/01/08 06:05:31;;;;;;;1.83;1.30;;;10.50;99.90;;;;;;5051379;28;20201;-41
2023/01/08 06:07:58;;;;;;;1.67;1.00;;;10.50;99.90;;;;;;5049828;28;20543;-39
2023/01/08 06:10:25;;;;;;;1.30;1.10;;;10.50;99.90;;;;;;5050441;28;20447;-38
2023/01/08 06:12:50;;;;;;;1.23;1.13;;;10.50;99.90;;;;;;5049979;28;20416;-39
2023/01/08 06:15:16;;;;;;;1.00;0.90;;;10.50;99.90;;;;;;5051296;28;20478;-38
2023/01/08 06:17:42;;;;;;;1.27;1.17;;;10.50;99.90;;;;;;5051065;28;20499;-37
2023/01/08 06:20:09;;;;;;;1.20;1.10;;;10.50;99.90;;;;;;5048913;28;20914;-39
2023/01/08 06:22:35;;;;;;;1.53;1.07;;;10.50;99.90;;;;;;5050759;28;20759;-35
2023/01/08 06:25:00;;;;;;;1.23;0.80;;;10.50;99.90;;;;;;5051019;28;20459;-41
2023/01/08 06:27:26;;;;;;;2.80;1.30;;;10.50;99.90;;;;;;5050734;28;20958;-39
2023/01/08 06:29:52;;;;;;;1.90;1.00;;;10.50;99.90;;;;;;5050450;28;20597;-41
2023/01/08 06:32:17;;;;;;;1.50;0.90;;;10.50;99.90;;;;;;5050843;28;20702;-39
2023/01/08 06:34:43;;;;;;;1.90;1.20;;;10.50;99.90;;;;;;5050836;28;20678;-38
2023/01/08 06:37:09;;;;;;;1.13;0.90;;;10.50;99.90;;;;;;5049526;28;20261;-40
2023/01/08 06:39:34;;;;;;;1.47;1.30;;;10.50;99.90;;;;;;5032183;28;20205;-40
2023/01/08 06:42:01;;;;;;;1.03;0.97;;;10.50;99.90;;;;;;5050551;28;20213;-41
2023/01/08 06:44:26;;;;;;;0.97;0.80;;;10.50;99.90;;;;;;5050825;28;20181;-38
2023/01/08 06:46:52;;;;;;;1.00;0.80;;;10.50;99.90;;;;;;5050625;28;20408;-40
2023/01/08 06:49:18;;;;;;;1.57;1.10;;;10.50;99.90;;;;;;5050118;28;20193;-38
2023/01/08 06:51:44;;;;;;;1.20;0.70;;;10.50;99.90;;;;;;5050456;28;20196;-38
2023/01/08 06:54:10;;;;;;;1.40;1.00;;;10.50;99.90;;;;;;5050344;28;20805;-40
2023/01/08 06:56:35;;;;;;;1.20;0.90;;;10.50;99.90;;;;;;5050364;28;20166;-39
2023/01/08 06:59:01;;;;;;;0.90;0.77;;;10.50;99.90;;;;;;5049870;28;20989;-37
2023/01/08 07:01:27;;;;;;;1.70;0.83;;;10.60;99.90;;;;;;5048099;28;20178;-38
2023/01/08 07:03:52;;;;;;;1.20;0.80;;;10.50;99.90;;;;;;5050196;28;20209;-40
2023/01/08 07:06:20;;;;;;;0.93;0.80;;;10.50;99.90;;;;;;5050291;28;20193;-36
2023/01/08 07:08:46;;;;;;;1.20;1.00;;;10.50;99.90;;;;;;5049901;28;20201;-39
2023/01/08 07:11:13;;;;;;;1.13;0.70;;;10.50;99.90;;;;;;5049679;28;20413;-40
2023/01/08 07:13:39;;;;;;;1.07;0.70;;;10.40;99.90;;;;;;5050058;28;20409;-39
2023/01/08 07:16:09;;;;;;;1.20;0.90;;;10.40;99.90;;;;;;5044607;28;21126;-40
2023/01/08 07:18:35;;;;;;;1.10;0.93;;;10.40;99.90;;;;;;5047493;28;20221;-38
2023/01/08 07:21:06;;;;;;;1.20;0.80;;;10.40;99.90;;;;;;5047556;28;20848;-40
2023/01/08 07:23:32;;;;;;;1.27;0.80;;;10.50;99.90;;;;;;5050160;28;20417;-40
2023/01/08 07:26:02;;;;;;;1.97;0.70;;;10.50;99.90;;;;;;5049847;28;20412;-38
2023/01/08 07:28:28;;;;;;;0.90;0.67;;;10.40;99.90;;;;;;5047456;28;20472;-37
2023/01/08 07:30:53;;;;;;;0.90;0.63;;;10.40;99.90;;;;;;5047362;28;20408;-38
2023/01/08 07:33:19;;;;;;;0.97;0.60;;;10.40;99.90;;;;;;5045182;28;20996;-40
2023/01/08 07:35:55;;;;;;;0.90;0.57;;;10.30;99.90;;;;;;5049798;28;20177;-35
2023/01/08 07:38:21;;;;;;;1.80;0.50;;;10.30;99.90;;;;;;5050084;28;20531;-35
2023/01/08 07:40:47;;;;;;;0.90;0.50;;;10.30;99.90;;;;;;5049262;28;20425;-38
2023/01/08 07:43:13;;;;;;;1.00;0.60;;;10.20;99.90;;;;;;5044399;28;20428;-38
2023/01/08 07:45:39;;;;;;;1.00;0.70;;;10.20;99.90;;;;;;5048466;28;20659;-38
2023/01/08 07:48:05;;;;;;;2.50;0.40;;;10.20;99.90;;;;;;5048223;28;20448;-37
2023/01/08 07:50:31;;;;;;;1.33;0.67;;;10.20;99.90;;;;;;5048639;28;20408;-40
2023/01/08 07:52:59;;;;;;;0.60;0.47;;;10.10;99.90;;;;;;5048487;28;20405;-43
2023/01/08 07:55:25;;;;;;;0.57;0.40;;;10.10;99.90;;;;;;5049756;28;20409;-41
2023/01/08 07:57:50;;;;;;;0.50;0.40;;;10.00;99.90;;;;;;5048257;28;20460;-38
2023/01/08 08:00:16;;;;;;;1.37;0.70;;;10.00;99.90;;;;;;5049185;28;20455;-38
2023/01/08 08:02:42;;;;;;;1.53;0.43;;;10.00;99.90;;;;;;5049308;28;20181;-37
2023/01/08 08:05:08;;;;;;;2.73;1.00;;;10.00;99.90;;;;;;5049653;28;20232;-39
2023/01/08 08:07:34;;;;;;;1.57;0.70;;;9.90;99.90;;;;;;5046367;28;20563;-38
2023/01/08 08:10:00;;;;;;;0.83;0.60;;;9.90;99.90;;;;;;5047609;28;20416;-39
2023/01/08 08:12:26;;;;;;;2.37;0.60;;;9.90;99.90;;;;;;5049593;28;20414;-35
2023/01/08 08:14:52;;;;;;;1.90;0.67;;;9.90;99.90;;;;;;5049652;28;20420;-39
2023/01/08 08:17:17;;;;;;;0.60;0.50;;;9.80;99.90;;;;;;5047870;28;20243;-40
2023/01/08 08:19:44;;;;;;;2.53;0.60;;;9.80;99.90;;;;;;5047654;28;20645;-39
2023/01/08 08:22:11;;;;;;;0.80;0.50;;;9.80;99.90;;;;;;5048314;28;20225;-36
2023/01/08 08:24:37;;;;;;;2.60;0.60;;;9.70;99.90;;;;;;5040006;28;20436;-38
2023/01/08 08:27:02;;;;;;;3.00;2.10;;;9.70;99.90;;;;;;5039239;28;20975;-40
2023/01/08 08:29:28;;;;;;;0.80;0.60;;;9.80;99.90;;;;;;5048846;28;20511;-36
2023/01/08 08:31:54;;;;;;;1.07;0.97;;;9.80;99.90;;;;;;5049253;28;20191;-39
2023/01/08 08:34:21;;;;;;;2.20;0.70;;;9.80;99.90;;;;;;5049330;28;20225;-38
2023/01/08 08:36:49;;;;;;;0.60;0.40;;;9.70;99.90;;;;;;5049500;28;20269;-38
2023/01/08 08:39:15;;;;;;;2.10;0.60;;;9.50;99.90;;;;;;5047449;28;20923;-35
2023/01/08 08:41:41;;;;;;;1.53;0.80;;;9.70;99.90;;;;;;5046993;28;20428;-41
2023/01/08 08:44:07;;;;;;;1.53;0.60;;;9.70;99.90;;;;;;5051057;28;20416;-38
2023/01/08 08:46:33;;;;;;;1.47;0.53;;;9.70;99.90;;;;;;5052047;28;20186;-40
2023/01/08 08:48:59;;;;;;;3.30;1.10;;;9.70;99.90;;;;;;5052109;28;20467;-36
2023/01/08 08:51:25;;;;;;;4.77;0.90;;;9.60;99.90;;;;;;5051831;28;20425;-41
2023/01/08 08:53:51;;;;;;;2.17;1.70;;;9.60;99.90;;;;;;5042165;28;20530;-41
2023/01/08 08:56:17;;;;;;;5.90;1.27;;;9.70;99.90;;;;;;5049611;28;21016;-40
2023/01/08 08:58:44;;;;;;;3.60;0.83;;;9.70;99.90;;;;;;5048168;28;20230;-36
2023/01/08 09:01:09;;;;;;;1.63;0.67;;;9.60;99.90;;;;;;5049583;28;20218;-38
2023/01/08 09:03:35;;;;;;;2.60;0.90;;;9.60;99.90;;;;;;5054430;28;20467;-40
2023/01/08 09:06:01;;;;;;;2.77;0.83;;;9.60;99.90;;;;;;5052932;28;20229;-40
2023/01/08 09:08:26;;;;;;;2.10;1.10;;;9.70;99.90;;;;;;5048192;28;20229;-41
2023/01/08 09:10:52;;;;;;;3.73;0.60;;;9.70;99.90;;;;;;5050726;28;20205;-33
2023/01/08 09:13:17;;;;;;;3.27;1.00;;;9.80;99.90;;;;;;5058468;28;20213;-36
2023/01/08 09:15:43;;;;;;;2.30;0.97;;;9.90;99.90;;;;;;5048991;28;20241;-37
2023/01/08 09:18:09;;;;;;;3.13;0.93;;;9.90;99.90;;;;;;5048217;28;20224;-37
2023/01/08 09:20:35;;;;;;;1.87;0.77;;;10.00;99.90;;;;;;5051696;28;20206;-38
2023/01/08 09:23:01;;;;;;;2.13;1.13;;;10.10;99.90;;;;;;5058731;28;20229;-37
2023/01/08 09:25:28;;;;;;;2.90;0.97;;;10.10;99.90;;;;;;5046446;28;20995;-38
2023/01/08 09:28:05;;;;;;;7.00;1.10;;;10.00;99.90;;;;;;5052020;28;20463;-40
2023/01/08 09:30:31;;;;;;;5.90;1.20;;;10.10;99.90;;;;;;5041166;28;20448;-41
2023/01/08 09:33:01;;;;;;;6.30;2.47;;;10.10;99.90;;;;;;5061535;28;21058;-39
2023/01/08 09:35:27;;;;;;;2.90;1.10;;;10.30;99.90;;;;;;5049865;28;20437;-41
2023/01/08 09:37:53;;;;;;;3.07;1.03;;;10.60;99.90;;;;;;5055703;28;20459;-36
2023/01/08 09:40:22;;;;;;;8.30;2.27;;;10.90;99.90;;;;;;5051689;28;20776;-38
2023/01/08 09:42:56;;;;;;;4.73;1.63;;;11.20;99.90;;;;;;5059431;28;20459;-38
2023/01/08 09:45:28;;;;;;;6.57;1.47;;;11.60;99.90;;;;;;5053919;28;20432;-36
2023/01/08 09:47:56;;;;;;;4.87;1.20;;;11.80;99.90;;;;;;5057631;28;20483;-37
2023/01/08 09:50:25;;;;;;;6.23;1.80;;;11.80;99.90;;;;;;5051770;28;20528;-40
2023/01/08 09:52:51;;;;;;;4.83;2.40;;;11.80;99.90;;;;;;5050672;28;20952;-40
2023/01/08 09:55:17;;;;;;;4.90;1.40;;;11.70;99.90;;;;;;5054089;28;20444;-38
2023/01/08 09:57:43;;;;;;;3.17;1.10;;;11.60;99.90;;;;;;5058887;28;20455;-37
2023/01/08 10:14:23;;;;;;;2.70;1.13;;;12.90;99.90;;;;;;5074493;28;20482;-40
2023/01/08 10:16:57;;;;;;;5.10;1.23;;;13.40;99.90;;;;;;5062136;28;20799;-39
2023/01/08 10:20:13;;;;;;;4.50;2.90;;;13.70;99.90;;;;;;5070276;28;20442;-38
2023/01/08 10:29:23;;;;;;;3.07;1.27;;;14.90;99.90;;;;;;5052020;28;20999;-40
2023/01/08 10:35:30;;;;;;;4.10;1.30;;;15.10;99.90;;;;;;5079801;28;20188;-37
2023/01/08 10:37:56;;;;;;;2.83;0.90;;;14.90;99.90;;;;;;5084630;28;20518;-41
2023/01/08 10:40:48;;;;;;;3.23;1.20;;;14.60;99.90;;;;;;5093042;28;20895;-41
2023/01/08 10:43:21;;;;;;;3.90;1.30;;;14.40;99.90;;;;;;5087046;28;20688;-39
2023/01/08 10:45:59;;;;;;;1.80;1.00;;;14.20;99.90;;;;;;5052731;28;20787;-38
2023/01/08 10:48:38;;;;;;;3.60;1.90;;;14.10;99.90;;;;;;5069593;28;20501;-38
2023/01/08 10:51:24;;;;;;;4.63;1.20;;;14.10;99.90;;;;;;5077470;28;20430;-38
2023/01/08 10:53:51;;;;;;;3.47;1.00;;;14.10;99.90;;;;;;5070852;28;20519;-41
2023/01/08 10:56:23;;;;;;;1.50;1.10;;;14.20;99.90;;;;;;5087062;28;20825;-37
2023/01/08 10:58:51;;;;;;;3.47;1.10;;;14.30;99.90;;;;;;5097837;28;20472;-39
2023/01/08 11:01:16;;;;;;;1.77;0.83;;;14.60;99.90;;;;;;5076922;28;20496;-39
2023/01/08 11:03:46;;;;;;;1.90;0.87;;;15.00;99.90;;;;;;5091373;28;20426;-41
2023/01/08 11:06:19;;;;;;;2.13;1.00;;;15.10;99.90;;;;;;5053356;28;20200;-38
2023/01/08 11:08:56;;;;;;;1.77;1.00;;;15.10;99.90;;;;;;5075933;28;21217;-40
2023/01/08 11:11:23;;;;;;;2.50;1.07;;;15.10;99.90;;;;;;5084626;28;20438;-41
2023/01/08 11:14:00;;;;;;;2.83;1.07;;;15.20;99.90;;;;;;5069264;28;20446;-41
2023/01/08 11:16:37;;;;;;;2.97;0.93;;;15.00;99.90;;;;;;5075328;28;20429;-38
2023/01/08 11:19:04;;;;;;;2.00;0.93;;;14.90;99.90;;;;;;5060887;28;20521;-40
2023/01/08 11:21:31;;;;;;;3.03;1.10;;;14.50;99.90;;;;;;5080559;28;20407;-39
2023/01/08 11:24:20;;;;;;;2.00;0.80;;;14.30;99.90;;;;;;5081246;28;21108;-35
2023/01/08 11:26:52;;;;;;;1.90;1.10;;;14.00;99.90;;;;;;5072294;28;20410;-41
2023/01/08 11:29:37;;;;;;;1.93;0.97;;;13.70;99.90;;;;;;5062275;28;20461;-38
2023/01/08 11:32:17;;;;;;;1.87;1.07;;;13.50;99.90;;;;;;5092214;28;20447;-41
2023/01/08 11:35:03;;;;;;;2.33;1.07;;;13.20;99.90;;;;;;5084789;28;20434;-36
2023/01/08 11:41:50;;;;;;;2.50;1.38;;;13.30;99.90;;;;;;5089059;23;20452;-77
2023/01/08 11:44:49;;;;;;;3.90;1.10;;;13.30;99.90;;;;;;5037000;28;20193;-78
2023/01/08 11:47:30;;;;;;;1.33;0.83;;;13.30;99.90;;;;;;5083585;28;20446;-77
2023/01/08 11:50:05;;;;;;;2.80;1.10;;;13.30;99.90;;;;;;5058952;28;20423;-79
2023/01/08 11:52:44;;;;;;;1.60;1.20;;;13.40;99.90;;;;;;5066150;28;20759;-78
2023/01/08 11:55:51;;;;;;;1.77;0.70;;;13.90;99.90;;;;;;5054565;28;20494;-77
2023/01/08 11:58:21;;;;;;;2.97;1.20;;;14.00;99.90;;;;;;5052177;28;20458;-76
2023/01/08 12:00:56;;;;;;;2.47;1.37;;;14.10;99.90;;;;;;5050980;28;20416;-78
2023/01/08 12:03:33;;;;;;;1.73;0.87;;;14.00;99.90;;;;;;5063606;28;20864;-78
2023/01/08 12:06:18;;;;;;;2.40;0.97;;;13.60;99.90;;;;;;5037271;28;20814;-79
2023/01/08 12:09:52;;;;;;;2.07;0.80;;;13.30;99.90;;;;;;5060159;28;20459;-79
2023/01/08 12:12:36;;;;;;;1.70;1.00;;;13.30;99.90;;;;;;4920975;28;20457;-77
2023/01/08 12:15:22;;;;;;;1.60;0.83;;;13.20;99.90;;;;;;4943252;28;20416;-79
2023/01/08 12:17:48;;;;;;;1.30;0.80;;;12.90;99.90;;;;;;5065136;28;20444;-79
2023/01/08 12:20:18;;;;;;;1.70;1.00;;;12.70;99.90;;;;;;5061118;28;20945;-77
2023/01/08 12:23:02;;;;;;;1.47;1.00;;;12.60;99.90;;;;;;5074927;28;20190;-77
2023/01/08 12:25:37;;;;;;;1.87;0.90;;;12.80;99.90;;;;;;5070403;28;20514;-78
2023/01/08 12:28:30;;;;;;;1.83;0.77;;;12.70;99.90;;;;;;5086661;28;20867;-78
2023/01/08 12:31:09;;;;;;;1.57;1.00;;;12.70;99.90;;;;;;5074888;28;20467;-78
2023/01/08 12:33:43;;;;;;;3.43;1.07;;;12.60;99.90;;;;;;5070340;28;20506;-78
2023/01/08 12:36:14;;;;;;;1.27;0.97;;;12.50;99.90;;;;;;5030120;28;20440;-78
2023/01/08 12:38:43;;;;;;;0.87;0.67;;;12.60;99.90;;;;;;5064010;28;20491;-78
2023/01/08 12:41:11;;;;;;;1.57;1.00;;;12.50;99.90;;;;;;5071488;28;20449;-78
2023/01/08 12:43:46;;;;;;;1.30;1.10;;;12.50;99.90;;;;;;5074460;28;20427;-78
2023/01/08 12:46:15;;;;;;;1.80;0.80;;;12.40;99.90;;;;;;5070453;28;20453;-77
2023/01/08 12:48:45;;;;;;;0.90;0.80;;;12.30;99.90;;;;;;5074816;28;20813;-79
2023/01/08 12:51:23;;;;;;;1.70;0.87;;;12.20;99.90;;;;;;5054592;28;20431;-78
2023/01/08 12:54:30;;;;;;;1.67;0.80;;;12.20;99.90;;;;;;5066815;28;20510;-79
2023/01/08 12:57:15;;;;;;;2.70;1.10;;;12.10;99.90;;;;;;5065135;28;20436;-77
2023/01/08 13:00:03;;;;;;;1.70;0.90;;;12.00;99.90;;;;;;5048139;28;20420;-78
2023/01/08 13:02:48;;;;;;;0.70;0.60;;;11.90;99.90;;;;;;5022525;28;20428;-77
2023/01/08 13:05:19;;;;;;;1.80;0.67;;;11.80;99.90;;;;;;5058846;28;20406;-75
2023/01/08 13:07:48;;;;;;;2.37;0.60;;;11.70;99.90;;;;;;5077291;28;20500;-78
2023/01/08 13:10:32;;;;;;;1.63;0.73;;;11.60;99.90;;;;;;5083303;28;20476;-78
2023/01/08 13:13:00;;;;;;;1.57;0.60;;;11.50;99.90;;;;;;5067388;28;20415;-79
2023/01/08 13:15:28;;;;;;;2.00;0.67;;;11.50;99.90;;;;;;5066411;28;20850;-79
2023/01/08 13:17:57;;;;;;;5.30;0.77;;;11.40;99.90;;;;;;5065374;28;20439;-78
2023/01/08 13:20:28;;;;;;;1.10;0.80;;;11.30;99.90;;;;;;5071106;28;20415;-79
2023/01/08 13:22:57;;;;;;;1.73;0.90;;;11.30;99.90;;;;;;5050965;28;20431;-77
2023/01/08 13:26:23;;;;;;;1.00;0.80;;;11.30;99.90;;;;;;5046913;28;20411;-78
2023/01/08 13:28:49;;;;;;;2.30;1.03;;;11.30;99.90;;;;;;5048669;28;20533;-78
2023/01/08 13:31:23;;;;;;;0.90;0.83;;;11.30;99.90;;;;;;5058222;28;20469;-78
2023/01/08 13:33:51;;;;;;;1.10;0.83;;;11.20;99.90;;;;;;5051267;28;20197;-78